Time;durP1;ratioP1;P1;durP2;ratioP2;P2;SDS_P1;SDS_P2;PMS_P1;PMS_P2;Temp;Humidity;BMP_temperature;BMP_pressure;BME280_temperature;BME280_humidity;BME280_pressure;Samples;Min_cycle;Max_cycle;Signal;HPM_P1;HPM_P2
2022/01/10 00:02:26;;;;;;;21.10;13.05;;;;;;;6.78;75.59;98128.78;5092909;28;20489;-50
2022/01/10 00:04:52;;;;;;;19.90;15.27;;;;;;;6.80;75.51;98131.19;5092867;28;20059;-51
2022/01/10 00:07:17;;;;;;;21.38;14.45;;;;;;;6.78;75.51;98120.13;5093118;28;20485;-50
2022/01/10 00:09:43;;;;;;;19.52;14.13;;;;;;;6.92;76.23;98113.22;5092775;28;20148;-50
2022/01/10 00:12:09;;;;;;;20.73;13.85;;;;;;;6.98;75.48;98112.44;5092707;28;20031;-50
2022/01/10 00:14:35;;;;;;;19.50;13.48;;;;;;;7.00;75.33;98105.25;5091694;28;20039;-49
2022/01/10 00:17:02;;;;;;;17.60;13.50;;;;;;;6.90;75.07;98110.81;5091309;28;20111;-49
2022/01/10 00:19:27;;;;;;;16.67;13.00;;;;;;;6.87;74.94;98115.59;5092631;28;20046;-48
2022/01/10 00:21:53;;;;;;;19.17;14.65;;;;;;;6.81;75.47;98109.34;5092574;28;20024;-48
2022/01/10 00:24:19;;;;;;;26.55;23.38;;;;;;;6.92;75.36;98108.00;5092521;28;20106;-50
2022/01/10 00:26:44;;;;;;;20.00;13.98;;;;;;;6.93;75.49;98102.59;5092215;28;20525;-50
2022/01/10 00:29:10;;;;;;;21.60;13.43;;;;;;;6.95;75.53;98099.81;5092308;28;20031;-49
2022/01/10 00:31:36;;;;;;;29.60;18.05;;;;;;;7.03;75.05;98101.47;5092320;28;20020;-48
2022/01/10 00:34:01;;;;;;;17.42;14.75;;;;;;;7.01;75.10;98099.03;5090889;28;20024;-49
2022/01/10 00:36:27;;;;;;;86.00;53.45;;;;;;;6.94;74.69;98112.06;5090953;28;20057;-50
2022/01/10 00:38:53;;;;;;;430.67;373.00;;;;;;;6.89;75.30;98116.22;5092247;28;20500;-50
2022/01/10 00:41:19;;;;;;;692.65;515.75;;;;;;;6.82;74.20;98110.94;5092276;28;20020;-50
2022/01/10 00:43:49;;;;;;;464.08;378.88;;;;;;;6.80;75.03;98112.94;5092182;28;20016;-51
2022/01/10 00:46:15;;;;;;;363.80;314.83;;;;;;;6.98;75.41;98115.06;5092239;28;20410;-49
2022/01/10 00:48:41;;;;;;;225.27;201.02;;;;;;;7.11;74.83;98109.94;5092097;28;20020;-50
2022/01/10 00:51:07;;;;;;;82.18;64.10;;;;;;;7.23;74.24;98112.00;5092081;28;20023;-50
2022/01/10 00:53:33;;;;;;;29.08;22.40;;;;;;;7.24;73.99;98121.44;5092128;28;20020;-49
2022/01/10 00:55:59;;;;;;;27.55;19.48;;;;;;;7.22;74.12;98123.44;5090716;28;20050;-49
2022/01/10 00:58:25;;;;;;;30.20;21.38;;;;;;;7.04;74.35;98116.09;5092053;28;20027;-50
2022/01/10 01:00:51;;;;;;;25.45;17.83;;;;;;;6.83;73.91;98114.38;5091953;28;20091;-49
2022/01/10 01:03:18;;;;;;;23.17;19.00;;;;;;;6.62;73.94;98110.00;5091976;28;20024;-49
2022/01/10 01:05:44;;;;;;;25.38;17.67;;;;;;;6.43;74.35;98112.25;5090586;28;20634;-50
2022/01/10 01:08:12;;;;;;;21.00;16.33;;;;;;;6.37;75.09;98113.00;5091864;28;20035;-50
2022/01/10 01:16:12;;;;;;;26.25;17.88;;;;;;;6.24;74.67;98126.75;5091816;28;20595;-49
2022/01/10 01:19:08;;;;;;;24.23;17.45;;;;;;;6.19;75.18;98129.88;5091941;28;20123;-49
2022/01/10 01:24:16;;;;;;;23.02;17.25;;;;;;;6.27;75.67;98130.75;5070041;28;20040;-48
2022/01/10 01:26:46;;;;;;;29.35;18.77;;;;;;;6.36;75.09;98142.69;5091516;28;20048;-49
2022/01/10 01:29:16;;;;;;;24.90;16.20;;;;;;;6.60;75.25;98141.50;5091723;28;20016;-49
2022/01/10 01:31:42;;;;;;;23.83;15.30;;;;;;;7.05;74.91;98138.59;5091799;28;20040;-49
2022/01/10 01:34:08;;;;;;;24.98;20.50;;;;;;;7.19;73.92;98155.94;5091633;28;20020;-49
2022/01/10 01:36:35;;;;;;;23.35;15.57;;;;;;;7.15;74.04;98152.91;5090314;28;20031;-51
2022/01/10 01:39:05;;;;;;;21.65;15.68;;;;;;;7.02;73.59;98155.41;5091694;28;20024;-48
2022/01/10 01:43:59;;;;;;;34.80;18.70;;;;;;;7.27;73.91;98168.84;5091925;28;20024;-50
2022/01/10 01:46:25;;;;;;;30.02;16.65;;;;;;;7.29;73.70;98174.69;5095575;28;20028;-50
2022/01/10 01:48:53;;;;;;;28.55;19.75;;;;;;;7.26;73.36;98177.66;5095504;28;20099;-50
2022/01/10 01:51:20;;;;;;;21.77;16.58;;;;;;;7.12;73.22;98176.78;5095510;28;20091;-50
2022/01/10 01:53:47;;;;;;;26.33;18.05;;;;;;;7.08;73.66;98187.78;5094134;28;20119;-49
2022/01/10 01:56:14;;;;;;;28.13;17.88;;;;;;;7.05;73.44;98175.13;5095409;28;20069;-49
2022/01/10 01:58:43;;;;;;;22.00;15.88;;;;;;;7.28;74.11;98169.66;5095362;28;20023;-50
2022/01/10 02:01:10;;;;;;;23.17;16.63;;;;;;;7.46;73.01;98169.16;5095254;28;20024;-50
2022/01/10 02:03:38;;;;;;;26.58;15.75;;;;;;;7.47;72.31;98163.75;5095268;28;20398;-49
2022/01/10 02:06:05;;;;;;;21.98;16.48;;;;;;;7.46;71.51;98163.94;5095217;28;20058;-49
2022/01/10 02:08:32;;;;;;;28.98;20.10;;;;;;;7.35;72.71;98162.69;5095143;28;20020;-50
2022/01/10 02:10:58;;;;;;;39.22;28.35;;;;;;;7.27;72.39;98166.25;5095048;28;20104;-50
2022/01/10 02:13:24;;;;;;;25.38;20.92;;;;;;;7.21;72.94;98167.00;5095053;28;20102;-49
2022/01/10 02:16:01;;;;;;;25.10;17.95;;;;;;;7.22;72.43;98167.81;5093669;28;20078;-50
2022/01/10 02:18:28;;;;;;;29.48;18.73;;;;;;;7.22;73.02;98168.59;5093757;28;20474;-50
2022/01/10 02:20:57;;;;;;;22.90;17.70;;;;;;;7.34;72.13;98174.91;5093556;28;20036;-50
2022/01/10 02:23:23;;;;;;;22.67;17.00;;;;;;;7.39;72.92;98177.75;5093586;28;20016;-50
2022/01/10 02:25:49;;;;;;;24.70;19.17;;;;;;;7.36;71.86;98175.53;5094825;28;20024;-51
2022/01/10 02:28:16;;;;;;;32.33;20.55;;;;;;;7.23;72.23;98180.66;5094547;28;20737;-49
2022/01/10 02:30:41;;;;;;;33.25;22.48;;;;;;;7.01;71.42;98174.69;5094679;28;20024;-49
2022/01/10 02:33:08;;;;;;;31.25;20.15;;;;;;;6.75;72.24;98173.50;5094712;28;20047;-49
2022/01/10 02:35:45;;;;;;;27.95;18.80;;;;;;;6.69;71.95;98176.84;5094694;28;20043;-51
2022/01/10 02:38:11;;;;;;;31.20;19.88;;;;;;;6.67;72.75;98175.44;5093364;28;20055;-49
2022/01/10 02:40:37;;;;;;;82.95;20.83;;;;;;;6.89;72.38;98174.41;5093225;28;20024;-48
2022/01/10 02:43:07;;;;;;;35.75;21.75;;;;;;;6.83;71.29;98169.94;5094538;28;20115;-50
2022/01/10 02:45:33;;;;;;;79.47;21.67;;;;;;;6.79;72.26;98169.50;5094540;28;20028;-50
2022/01/10 02:47:59;;;;;;;30.58;19.05;;;;;;;6.72;72.11;98173.06;5093010;28;20035;-50
2022/01/10 02:50:25;;;;;;;60.28;20.25;;;;;;;6.71;72.69;98176.66;5094387;28;20023;-51
2022/01/10 02:52:51;;;;;;;31.08;20.00;;;;;;;6.69;72.32;98178.66;5094358;28;20020;-49
2022/01/10 02:55:17;;;;;;;27.90;20.88;;;;;;;6.64;72.15;98183.63;5094230;28;20093;-48
2022/01/10 02:57:43;;;;;;;41.97;21.58;;;;;;;6.65;72.99;98170.41;5092860;28;20024;-51
2022/01/10 03:00:13;;;;;;;39.58;20.92;;;;;;;6.68;72.95;98172.66;5092843;28;20031;-50
2022/01/10 03:02:41;;;;;;;30.10;19.80;;;;;;;6.69;71.99;98174.25;5094158;28;20105;-50
2022/01/10 03:05:08;;;;;;;27.48;19.63;;;;;;;6.68;72.63;98177.88;5094109;28;20028;-49
2022/01/10 03:07:34;;;;;;;31.88;20.50;;;;;;;6.73;72.98;98190.31;5092727;28;20027;-50
2022/01/10 03:10:00;;;;;;;29.75;18.73;;;;;;;6.72;72.56;98188.69;5092720;28;20017;-51
2022/01/10 03:12:28;;;;;;;31.08;20.77;;;;;;;6.59;72.97;98192.81;5094292;28;20032;-51
2022/01/10 03:14:54;;;;;;;40.47;19.88;;;;;;;6.56;72.88;98203.63;5093952;28;20371;-49
2022/01/10 03:17:19;;;;;;;84.53;19.98;;;;;;;6.53;72.81;98197.97;5092501;28;20085;-50
2022/01/10 03:19:46;;;;;;;28.77;19.00;;;;;;;6.44;72.83;98205.13;5092427;28;20024;-49
2022/01/10 03:22:11;;;;;;;64.95;20.70;;;;;;;6.29;72.37;98206.94;5093815;28;20103;-51
2022/01/10 03:24:37;;;;;;;26.83;19.75;;;;;;;6.16;73.22;98210.22;5093699;28;20099;-49
2022/01/10 03:27:03;;;;;;;24.70;19.30;;;;;;;6.24;73.76;98212.72;5093319;28;20048;-49
2022/01/10 03:29:29;;;;;;;32.30;21.42;;;;;;;6.31;72.97;98212.78;5092245;28;20031;-49
2022/01/10 03:31:55;;;;;;;32.83;22.40;;;;;;;6.22;72.82;98212.09;5093534;28;20020;-51
2022/01/10 03:34:21;;;;;;;35.17;25.13;;;;;;;6.20;73.24;98216.69;5092207;28;20397;-49
2022/01/10 03:36:46;;;;;;;36.92;23.80;;;;;;;6.26;74.03;98209.91;5092117;28;20020;-51
2022/01/10 03:39:13;;;;;;;42.00;27.25;;;;;;;6.30;73.42;98205.94;5092059;28;20024;-50
2022/01/10 03:41:39;;;;;;;32.42;22.10;;;;;;;6.32;73.20;98198.78;5093388;28;20069;-51
2022/01/10 03:44:06;;;;;;;46.38;24.15;;;;;;;6.27;72.48;98201.91;5092052;28;20071;-51
2022/01/10 03:46:33;;;;;;;127.22;25.08;;;;;;;6.18;72.97;98198.63;5093592;28;20423;-49
2022/01/10 03:49:00;;;;;;;45.92;28.23;;;;;;;6.19;73.07;98215.84;5093150;28;20111;-50
2022/01/10 03:51:27;;;;;;;33.88;24.63;;;;;;;6.24;73.05;98215.31;5091849;28;20021;-49
2022/01/10 03:53:52;;;;;;;38.15;22.92;;;;;;;6.35;73.19;98214.03;5091809;28;20120;-50
2022/01/10 03:56:19;;;;;;;41.25;22.60;;;;;;;6.47;73.67;98212.53;5091732;28;20154;-51
2022/01/10 03:58:44;;;;;;;33.42;22.33;;;;;;;6.65;72.70;98213.94;5091699;28;20031;-51
2022/01/10 04:01:12;;;;;;;51.22;23.65;;;;;;;6.61;72.73;98216.09;5091650;28;20019;-51
2022/01/10 04:03:38;;;;;;;65.72;23.90;;;;;;;6.48;72.27;98222.00;5093202;28;20122;-51
2022/01/10 04:06:05;;;;;;;39.38;24.17;;;;;;;6.30;72.09;98221.59;5091591;28;20024;-49
2022/01/10 04:08:32;;;;;;;104.10;25.48;;;;;;;6.25;71.55;98216.13;5092268;28;20051;-49
2022/01/10 04:10:59;;;;;;;89.57;25.13;;;;;;;6.13;71.68;98221.81;5092821;28;20027;-49
2022/01/10 04:13:25;;;;;;;28.75;19.65;;;;;;;6.11;73.02;98225.59;5091486;28;20032;-51
2022/01/10 04:15:51;;;;;;;25.58;18.50;;;;;;;6.19;73.38;98226.28;5092706;28;20023;-50
2022/01/10 04:18:17;;;;;;;26.58;19.60;;;;;;;6.43;73.41;98219.13;5091394;28;20409;-50
2022/01/10 04:20:45;;;;;;;27.70;20.40;;;;;;;6.61;72.62;98218.69;5092598;28;20511;-50
2022/01/10 04:23:12;;;;;;;22.33;17.40;;;;;;;6.82;72.52;98214.47;5091324;28;20028;-50
2022/01/10 04:25:38;;;;;;;24.08;17.52;;;;;;;6.90;72.36;98225.59;5092509;28;20016;-50
2022/01/10 04:28:04;;;;;;;22.42;16.48;;;;;;;7.01;71.82;98219.03;5090934;28;20036;-50
2022/01/10 04:30:30;;;;;;;19.35;15.50;;;;;;;7.16;70.78;98229.38;5091129;28;20502;-50
2022/01/10 04:33:00;;;;;;;24.70;16.05;;;;;;;7.29;71.16;98233.91;5092441;28;20535;-50
2022/01/10 04:35:27;;;;;;;19.98;16.17;;;;;;;7.31;69.64;98240.56;5092362;28;20074;-50
2022/01/10 04:37:53;;;;;;;25.00;17.50;;;;;;;7.15;69.52;98239.03;5091050;28;20111;-50
2022/01/10 04:40:19;;;;;;;20.80;17.05;;;;;;;7.03;70.33;98247.56;5091115;28;20116;-49
2022/01/10 04:42:45;;;;;;;27.00;18.67;;;;;;;7.03;70.75;98250.19;5092258;28;20070;-51
2022/01/10 04:45:12;;;;;;;29.33;19.33;;;;;;;7.06;70.73;98247.97;5092202;28;20444;-49
2022/01/10 04:47:38;;;;;;;31.08;23.38;;;;;;;7.08;70.59;98248.59;5092117;28;20019;-49
2022/01/10 04:52:34;;;;;;;25.02;17.85;;;;;;;6.83;69.02;98263.84;5092166;28;20471;-51
2022/01/10 04:55:01;;;;;;;26.40;18.80;;;;;;;6.39;70.18;98268.19;5090752;28;20020;-50
2022/01/10 04:57:27;;;;;;;28.77;19.63;;;;;;;6.15;70.82;98260.72;5090693;28;20020;-50
2022/01/10 04:59:52;;;;;;;41.85;33.58;;;;;;;6.23;72.00;98272.81;5090724;28;20028;-51
2022/01/10 05:02:18;;;;;;;24.17;19.15;;;;;;;6.43;71.85;98281.69;5090653;28;20070;-49
2022/01/10 05:04:44;;;;;;;27.50;18.83;;;;;;;6.39;71.12;98270.00;5090616;28;20064;-49
2022/01/10 05:07:10;;;;;;;26.55;18.67;;;;;;;6.42;72.04;98274.88;5091926;28;20059;-50
2022/01/10 05:09:35;;;;;;;28.10;19.33;;;;;;;6.51;72.04;98272.94;5090469;28;20032;-49
2022/01/10 05:12:01;;;;;;;36.50;24.45;;;;;;;6.56;71.78;98278.41;5091817;28;20022;-49
2022/01/10 05:14:27;;;;;;;30.08;19.70;;;;;;;6.70;72.44;98277.56;5091873;28;20028;-51
2022/01/10 05:16:53;;;;;;;22.88;16.77;;;;;;;6.93;71.66;98281.78;5091811;28;20020;-51
2022/01/10 05:19:19;;;;;;;25.20;18.83;;;;;;;6.95;70.92;98282.41;5092866;28;20028;-50
2022/01/10 05:21:44;;;;;;;23.85;17.52;;;;;;;6.89;70.37;98278.75;5094779;28;20024;-50
2022/01/10 05:24:10;;;;;;;22.70;16.45;;;;;;;6.80;70.17;98290.28;5096001;28;20035;-50
2022/01/10 05:26:37;;;;;;;23.95;18.08;;;;;;;6.76;70.02;98294.25;5094443;28;20528;-51
2022/01/10 05:29:03;;;;;;;23.50;17.65;;;;;;;6.75;71.05;98290.03;5094657;28;20020;-49
2022/01/10 05:31:33;;;;;;;23.42;18.15;;;;;;;6.80;70.39;98295.50;5095888;28;20028;-49
2022/01/10 05:33:59;;;;;;;24.52;19.33;;;;;;;6.85;71.00;98300.19;5095821;28;20050;-50
2022/01/10 05:36:24;;;;;;;27.02;19.27;;;;;;;6.92;71.27;98307.06;5095787;28;20024;-51
2022/01/10 05:38:50;;;;;;;27.00;19.60;;;;;;;7.20;70.32;98290.66;5095772;28;20402;-51
2022/01/10 05:41:16;;;;;;;21.90;17.08;;;;;;;7.32;69.05;98302.19;5095704;28;20024;-50
2022/01/10 05:43:43;;;;;;;19.77;14.65;;;;;;;7.14;69.40;98302.66;5094300;28;20039;-51
2022/01/10 05:46:11;;;;;;;28.80;21.30;;;;;;;6.97;69.51;98298.69;5095639;28;20397;-50
2022/01/10 05:48:39;;;;;;;18.95;15.48;;;;;;;6.86;70.06;98310.44;5095520;28;20043;-49
2022/01/10 05:51:07;;;;;;;20.10;14.43;;;;;;;6.76;70.10;98313.34;5094436;28;20594;-51
2022/01/10 05:53:33;;;;;;;27.23;15.68;;;;;;;6.69;70.03;98309.84;5095441;28;20397;-51
2022/01/10 05:55:59;;;;;;;19.48;13.80;;;;;;;6.64;70.60;98321.81;5095414;28;20028;-51
2022/01/10 05:58:26;;;;;;;26.48;16.02;;;;;;;6.60;70.47;98324.78;5095402;28;20443;-50
2022/01/10 06:00:52;;;;;;;20.98;17.35;;;;;;;6.69;70.59;98340.34;5095245;28;20051;-50
2022/01/10 06:03:17;;;;;;;20.83;14.25;;;;;;;6.81;70.22;98338.84;5093949;28;20470;-50
2022/01/10 06:05:43;;;;;;;20.50;14.82;;;;;;;6.88;68.97;98344.13;5095269;28;20205;-51
2022/01/10 06:08:09;;;;;;;16.50;13.32;;;;;;;6.87;69.51;98348.56;5095161;28;20021;-49
2022/01/10 06:10:36;;;;;;;26.90;18.50;;;;;;;6.95;69.51;98347.63;5095097;28;20043;-50
2022/01/10 06:13:01;;;;;;;21.40;14.73;;;;;;;7.34;68.83;98347.19;5093825;28;20059;-50
2022/01/10 06:15:27;;;;;;;20.75;14.68;;;;;;;7.55;68.09;98359.41;5095038;28;20450;-50
2022/01/10 06:17:54;;;;;;;20.65;14.40;;;;;;;7.68;67.83;98369.16;5094991;28;20052;-50
2022/01/10 06:20:20;;;;;;;20.30;14.93;;;;;;;7.56;67.72;98368.84;5094967;28;20489;-51
2022/01/10 06:22:46;;;;;;;12.52;7.97;;;;;;;7.50;66.47;98377.44;5094937;28;20043;-50
2022/01/10 06:25:16;;;;;;;17.13;8.93;;;;;;;7.44;66.83;98372.16;5093543;28;20032;-50
2022/01/10 06:27:42;;;;;;;11.57;6.03;;;;;;;7.42;65.85;98371.56;5094579;28;20043;-49
2022/01/10 06:30:08;;;;;;;11.30;5.85;;;;;;;7.20;66.32;98384.59;5094317;28;20034;-50
2022/01/10 06:32:34;;;;;;;9.88;7.35;;;;;;;7.07;66.79;98384.47;5093411;28;20141;-49
2022/01/10 06:35:00;;;;;;;15.70;8.35;;;;;;;7.09;67.49;98390.31;5094666;28;20074;-51
2022/01/10 06:37:26;;;;;;;11.52;6.55;;;;;;;7.16;68.12;98393.78;5094637;28;20525;-49
2022/01/10 06:39:52;;;;;;;11.85;6.25;;;;;;;7.21;67.79;98409.72;5093293;28;20047;-50
2022/01/10 06:42:19;;;;;;;8.43;5.97;;;;;;;7.25;66.96;98404.94;5094505;28;20016;-50
2022/01/10 06:44:45;;;;;;;13.05;7.35;;;;;;;7.16;66.88;98409.44;5094528;28;20020;-51
2022/01/10 06:47:11;;;;;;;10.52;6.22;;;;;;;7.27;67.54;98411.59;5094471;28;20439;-50
2022/01/10 06:49:37;;;;;;;15.60;7.22;;;;;;;7.26;67.04;98409.16;5093019;28;20122;-49
2022/01/10 06:52:03;;;;;;;10.63;6.13;;;;;;;7.32;66.56;98411.00;5094319;28;20119;-49
2022/01/10 06:54:29;;;;;;;14.38;6.45;;;;;;;7.34;66.16;98420.28;5094361;28;20393;-50
2022/01/10 06:56:58;;;;;;;14.70;6.97;;;;;;;7.22;65.88;98424.38;5094223;28;20020;-50
2022/01/10 06:59:25;;;;;;;11.52;7.97;;;;;;;7.14;67.02;98416.66;5093175;28;20458;-51
2022/01/10 07:01:52;;;;;;;10.52;7.07;;;;;;;7.34;65.87;98427.31;5092805;28;20482;-50
2022/01/10 07:04:18;;;;;;;10.93;5.95;;;;;;;7.14;66.35;98425.31;5094126;28;20028;-50
2022/01/10 07:06:44;;;;;;;11.77;6.78;;;;;;;7.14;66.26;98432.31;5094074;28;20543;-50
2022/01/10 07:09:09;;;;;;;11.10;6.28;;;;;;;7.09;65.51;98447.72;5093944;28;20095;-50
2022/01/10 07:11:36;;;;;;;8.75;5.90;;;;;;;6.95;66.02;98444.16;5092651;28;20031;-50
2022/01/10 07:14:03;;;;;;;12.35;7.15;;;;;;;6.87;66.49;98455.50;5094018;28;20016;-51
2022/01/10 07:16:29;;;;;;;12.32;6.95;;;;;;;6.82;66.57;98460.44;5093899;28;20054;-49
2022/01/10 07:18:54;;;;;;;9.80;5.95;;;;;;;6.79;65.90;98456.41;5092569;28;20039;-50
2022/01/10 07:21:20;;;;;;;9.38;5.40;;;;;;;6.85;66.61;98475.75;5093855;28;20401;-50
2022/01/10 07:23:48;;;;;;;13.85;6.78;;;;;;;6.94;66.44;98482.50;5093759;28;20016;-50
2022/01/10 07:26:14;;;;;;;10.93;5.60;;;;;;;6.99;66.34;98487.94;5093717;28;20016;-51
2022/01/10 07:28:40;;;;;;;11.95;7.10;;;;;;;7.11;66.62;98492.72;5093419;28;20532;-49
2022/01/10 07:31:06;;;;;;;8.07;5.88;;;;;;;7.27;66.01;98492.50;5093564;28;20028;-51
2022/01/10 07:33:32;;;;;;;26.63;17.25;;;;;;;7.36;65.82;98493.19;5093534;28;20447;-51
2022/01/10 07:35:57;;;;;;;14.65;7.38;;;;;;;7.38;65.23;98501.66;5093541;28;20016;-49
2022/01/10 07:38:23;;;;;;;9.95;6.15;;;;;;;7.51;65.46;98503.59;5093434;28;20417;-51
2022/01/10 07:40:49;;;;;;;16.23;6.53;;;;;;;7.55;65.09;98507.47;5092081;28;20028;-51
2022/01/10 07:43:15;;;;;;;15.88;6.63;;;;;;;7.60;64.58;98515.53;5091237;28;20028;-50
2022/01/10 07:45:41;;;;;;;10.18;6.35;;;;;;;7.60;65.07;98518.16;5093329;28;20103;-49
2022/01/10 07:48:06;;;;;;;14.18;7.30;;;;;;;7.63;65.16;98525.63;5091901;28;20432;-49
2022/01/10 07:50:32;;;;;;;11.55;6.72;;;;;;;7.69;65.48;98532.72;5093235;28;20052;-50
2022/01/10 07:52:58;;;;;;;11.48;6.60;;;;;;;7.77;65.21;98540.44;5093209;28;20374;-50
2022/01/10 07:55:24;;;;;;;11.77;7.75;;;;;;;7.78;64.98;98538.63;5093147;28;20093;-50
2022/01/10 07:57:50;;;;;;;14.32;7.28;;;;;;;7.80;64.80;98552.31;5091849;28;20119;-49
2022/01/10 08:00:15;;;;;;;13.27;6.97;;;;;;;7.70;65.05;98546.59;5093059;28;20028;-51
2022/01/10 08:02:41;;;;;;;13.25;7.25;;;;;;;7.70;64.57;98557.03;5093080;28;20035;-51
2022/01/10 08:05:09;;;;;;;9.55;7.40;;;;;;;7.79;64.45;98561.97;5093058;28;20051;-49
2022/01/10 08:07:35;;;;;;;12.20;6.78;;;;;;;7.90;64.05;98567.69;5092860;28;20047;-49
2022/01/10 08:10:03;;;;;;;10.02;6.70;;;;;;;7.96;64.38;98572.16;5092948;28;20016;-49
2022/01/10 08:12:29;;;;;;;12.00;7.88;;;;;;;8.02;64.30;98581.06;5092818;28;20495;-49
2022/01/10 08:14:55;;;;;;;9.57;6.30;;;;;;;7.99;64.36;98583.06;5091578;28;20024;-51
2022/01/10 08:17:21;;;;;;;10.02;5.53;;;;;;;7.94;62.71;98587.22;5092726;28;20027;-50
2022/01/10 08:19:46;;;;;;;6.30;4.63;;;;;;;7.76;62.33;98587.63;5092693;28;20031;-50
2022/01/10 08:22:12;;;;;;;9.10;5.70;;;;;;;7.55;62.73;98601.47;5091314;28;20028;-48
2022/01/10 08:24:38;;;;;;;9.05;5.10;;;;;;;7.30;62.55;98604.34;5091427;28;20394;-49
2022/01/10 08:27:04;;;;;;;8.98;4.75;;;;;;;7.16;62.20;98602.56;5092340;28;20513;-49
2022/01/10 08:29:32;;;;;;;10.73;5.32;;;;;;;6.96;62.68;98617.94;5092313;28;20421;-49
2022/01/10 08:31:58;;;;;;;12.90;5.05;;;;;;;6.85;63.57;98616.59;5091142;28;20032;-50
2022/01/10 08:34:24;;;;;;;7.78;5.97;;;;;;;6.80;63.71;98618.91;5092432;28;20027;-49
2022/01/10 08:36:51;;;;;;;8.07;4.88;;;;;;;6.80;63.42;98629.34;5092387;28;20429;-50
2022/01/10 08:39:18;;;;;;;9.10;5.18;;;;;;;6.78;64.25;98628.72;5091007;28;20509;-49
2022/01/10 08:41:44;;;;;;;13.02;5.45;;;;;;;6.85;64.33;98639.28;5091009;28;20448;-49
2022/01/10 08:44:09;;;;;;;8.90;5.18;;;;;;;6.88;64.55;98650.16;5092290;28;20020;-51
2022/01/10 08:46:36;;;;;;;11.90;5.72;;;;;;;6.95;64.22;98648.44;5092264;28;20031;-50
2022/01/10 08:49:01;;;;;;;11.15;5.57;;;;;;;6.97;63.74;98656.91;5090797;28;20490;-49
2022/01/10 08:51:29;;;;;;;383.73;286.23;;;;;;;7.04;63.57;98656.19;5090825;28;20027;-49
2022/01/10 08:53:54;;;;;;;78.38;54.75;;;;;;;7.07;64.43;98658.47;5092089;28;20020;-51
2022/01/10 08:56:20;;;;;;;156.68;133.82;;;;;;;7.09;64.48;98664.31;5092020;28;20153;-49
2022/01/10 08:58:46;;;;;;;61.08;46.47;;;;;;;7.12;64.32;98661.34;5091998;28;20035;-50
2022/01/10 09:01:12;;;;;;;12.27;9.40;;;;;;;7.13;63.92;98671.59;5090613;28;20028;-48
2022/01/10 09:03:38;;;;;;;18.58;8.52;;;;;;;7.27;64.51;98664.78;5090685;28;20016;-50
2022/01/10 09:06:04;;;;;;;10.45;6.63;;;;;;;7.42;63.44;98670.00;5092030;28;20154;-51
2022/01/10 09:08:34;;;;;;;12.10;6.70;;;;;;;7.62;63.43;98682.50;5090560;28;20110;-50
2022/01/10 09:11:01;;;;;;;8.65;4.93;;;;;;;7.77;63.54;98680.72;5091934;28;20107;-51
2022/01/10 09:13:28;;;;;;;18.60;5.90;;;;;;;7.92;61.78;98683.28;5090588;28;20024;-50
2022/01/10 09:15:54;;;;;;;16.50;5.70;;;;;;;7.92;61.39;98688.50;5090571;28;20051;-49
2022/01/10 09:18:20;;;;;;;18.50;5.75;;;;;;;7.90;60.95;98696.53;5091924;28;20482;-51
2022/01/10 09:20:46;;;;;;;10.18;4.53;;;;;;;7.90;60.46;98695.72;5091829;28;20378;-49
2022/01/10 09:23:12;;;;;;;10.35;4.53;;;;;;;7.93;60.48;98688.34;5091795;28;20021;-49
2022/01/10 09:25:38;;;;;;;17.23;5.30;;;;;;;8.03;60.46;98702.91;5090533;28;20520;-50
2022/01/10 09:28:05;;;;;;;12.13;7.38;;;;;;;8.12;60.44;98692.16;5090202;28;20155;-49
2022/01/10 09:30:31;;;;;;;11.65;5.63;;;;;;;8.24;60.42;98689.06;5091713;28;20038;-51
2022/01/10 09:32:57;;;;;;;5.82;3.35;;;;;;;8.41;59.73;98700.97;5091773;28;20024;-51
2022/01/10 09:35:23;;;;;;;6.97;4.22;;;;;;;8.51;58.63;98693.63;5091763;28;20034;-49
2022/01/10 09:37:49;;;;;;;9.82;3.92;;;;;;;8.50;58.91;98697.22;5090384;28;20089;-49
2022/01/10 09:40:16;;;;;;;11.18;4.07;;;;;;;8.56;58.49;98703.50;5091637;28;20063;-52
2022/01/10 09:42:42;;;;;;;6.32;3.58;;;;;;;8.57;58.57;98702.50;5091711;28;20047;-51
2022/01/10 09:45:08;;;;;;;6.78;3.28;;;;;;;8.53;57.88;98703.88;5091581;28;20490;-49
2022/01/10 09:47:35;;;;;;;6.75;3.35;;;;;;;8.55;58.37;98728.03;5091578;28;20044;-50
2022/01/10 09:50:01;;;;;;;9.25;3.35;;;;;;;8.53;58.38;98727.41;5091460;28;20051;-50
2022/01/10 09:52:28;;;;;;;6.57;4.72;;;;;;;8.60;58.46;98728.28;5091566;28;20020;-49
2022/01/10 09:54:53;;;;;;;7.15;2.88;;;;;;;8.62;57.47;98730.72;5091540;28;20024;-51
2022/01/10 09:57:20;;;;;;;5.78;3.63;;;;;;;8.51;58.32;98738.09;5090195;28;20021;-48
2022/01/10 09:59:47;;;;;;;6.93;3.05;;;;;;;8.51;57.35;98748.53;5091755;28;20032;-51
2022/01/10 10:02:15;;;;;;;13.63;3.30;;;;;;;8.57;58.24;98753.03;5091424;28;20040;-51
2022/01/10 10:04:41;;;;;;;6.50;3.17;;;;;;;8.76;58.23;98758.63;5090127;28;20020;-50
2022/01/10 10:07:08;;;;;;;5.05;3.17;;;;;;;8.95;57.81;98755.41;5093749;28;20073;-49
2022/01/10 10:09:35;;;;;;;5.45;3.25;;;;;;;9.14;58.45;98761.00;5095144;28;20035;-51
2022/01/10 10:12:01;;;;;;;5.75;3.92;;;;;;;9.20;57.30;98765.47;5095167;28;20016;-50
2022/01/10 10:14:27;;;;;;;6.40;5.75;;;;;;;9.17;57.26;98769.25;5095087;28;20028;-50
2022/01/10 10:16:55;;;;;;;6.32;2.97;;;;;;;9.19;56.50;98766.47;5095078;28;20379;-50
2022/01/10 10:19:30;;;;;;;3.72;2.17;;;;;;;9.25;55.94;98767.53;5093722;28;20070;-51
2022/01/10 10:21:58;;;;;;;3.00;2.60;;;;;;;9.25;55.62;98750.00;5095051;28;20043;-51
2022/01/10 10:24:26;;;;;;;6.10;2.90;;;;;;;9.08;55.54;98765.16;5094851;28;20281;-50
2022/01/10 10:26:52;;;;;;;4.30;2.33;;;;;;;8.86;56.28;98780.06;5094623;28;20570;-49
2022/01/10 10:29:19;;;;;;;4.22;2.13;;;;;;;8.85;56.27;98780.25;5093466;28;20440;-50
2022/01/10 10:31:50;;;;;;;4.18;2.60;;;;;;;8.82;57.06;98772.78;5094764;28;20104;-50
2022/01/10 10:34:27;;;;;;;4.50;2.55;;;;;;;8.80;57.13;98771.16;5094733;28;20064;-51
2022/01/10 10:37:03;;;;;;;8.02;2.60;;;;;;;8.82;56.73;98778.03;5094989;28;20039;-49
2022/01/10 10:39:30;;;;;;;6.22;3.08;;;;;;;8.86;56.68;98772.22;5093388;28;20107;-49
2022/01/10 10:42:01;;;;;;;6.60;3.72;;;;;;;8.84;56.76;98771.59;5093305;28;20085;-49
2022/01/10 10:44:29;;;;;;;9.18;5.05;;;;;;;8.72;56.22;98773.91;5094595;28;20028;-48
2022/01/10 10:46:54;;;;;;;7.40;3.20;;;;;;;8.64;56.79;98787.09;5094520;28;20109;-49
2022/01/10 10:49:22;;;;;;;8.48;2.53;;;;;;;8.63;56.89;98787.28;5094377;28;20534;-50
2022/01/10 10:51:50;;;;;;;5.78;2.08;;;;;;;8.62;56.57;98781.25;5094404;28;20031;-49
2022/01/10 10:54:17;;;;;;;4.45;2.38;;;;;;;8.60;56.73;98781.41;5094314;28;20032;-51
2022/01/10 10:56:45;;;;;;;3.45;2.15;;;;;;;8.64;57.06;98783.69;5094335;28;20024;-50
2022/01/10 10:59:11;;;;;;;12.32;3.30;;;;;;;8.75;56.93;98783.19;5094318;28;20095;-51
2022/01/10 11:01:40;;;;;;;5.18;3.17;;;;;;;8.88;57.51;98790.38;5094211;28;20016;-49
2022/01/10 11:04:09;;;;;;;4.70;2.03;;;;;;;8.85;56.55;98788.09;5094170;28;20030;-51
2022/01/10 11:06:36;;;;;;;4.38;2.20;;;;;;;8.75;56.42;98802.31;5092805;28;20073;-51
2022/01/10 11:09:06;;;;;;;6.28;2.40;;;;;;;8.73;56.46;98795.63;5092672;28;20619;-51
2022/01/10 11:11:33;;;;;;;6.47;2.80;;;;;;;8.77;56.14;98799.50;5094088;28;20069;-51
2022/01/10 11:14:00;;;;;;;2.85;2.00;;;;;;;8.70;56.73;98783.75;5092703;28;20024;-50
2022/01/10 11:16:27;;;;;;;31.30;9.68;;;;;;;8.78;56.14;98795.91;5093143;28;20111;-51
2022/01/10 11:18:54;;;;;;;28.50;13.18;;;;;;;8.77;56.21;98791.66;5093527;28;20144;-51
2022/01/10 11:21:24;;;;;;;39.88;7.13;;;;;;;8.78;56.01;98808.97;5092453;28;20029;-49
2022/01/10 11:23:50;;;;;;;14.73;4.97;;;;;;;8.67;56.09;98805.06;5092476;28;20452;-50
2022/01/10 11:26:17;;;;;;;5.32;2.20;;;;;;;8.65;56.21;98806.22;5093703;28;20027;-50
2022/01/10 11:28:56;;;;;;;5.47;2.38;;;;;;;8.74;56.40;98811.16;5093680;28;20038;-50
2022/01/10 11:31:27;;;;;;;5.18;2.65;;;;;;;8.69;55.23;98799.63;5092339;28;20397;-51
2022/01/10 11:33:55;;;;;;;3.63;2.15;;;;;;;8.62;55.34;98809.22;5093656;28;20024;-51
2022/01/10 11:36:24;;;;;;;3.15;2.20;;;;;;;8.59;55.88;98803.34;5093532;28;20020;-50
2022/01/10 11:38:55;;;;;;;4.25;2.25;;;;;;;8.59;56.50;98810.38;5093512;28;20099;-51
2022/01/10 11:41:24;;;;;;;9.00;2.20;;;;;;;8.59;55.91;98805.97;5093404;28;20016;-50